KPHT/PHT METAR and TAF weather

Enter ICAO airport designator
Station Type Date Time Source
KPHT METAR 2019/10/15 21:55 UTC NOAA

KPHT 152155Z AUTO 21011KT 10SM OVC019 22/18 A2988 RMK A01


Station Type Date Time Source
KPHT Decoded METAR 2019/10/15 21:55 UTC NOAA

Station name not available
Oct 15, 2019 - 05:55 PM EDT / 2019.10.15 2155 UTC
Wind: from the SSW (210 degrees) at 13 MPH (11 KT):0
Visibility: 10 mile(s):0
Sky conditions: overcast
Temperature: 71 F (22 C)
Dew Point: 64 F (18 C)
Relative Humidity: 78%
Pressure (altimeter): 29.88 in. Hg (1011 hPa)
ob: KPHT 152155Z AUTO 21011KT 10SM OVC019 22/18 A2988 RMK A01
cycle: 22

Station Type Date Time Source
KPHT TAF UTC NOAA

Error!

Example: see airport list